createdAt,value
2019-03-28T00:00:51.579Z,9.50
2019-03-28T00:03:19.765Z,9.47
2019-03-28T00:05:47.233Z,9.42
2019-03-28T00:08:15.111Z,9.34
2019-03-28T00:10:43.100Z,9.32
2019-03-28T00:13:10.630Z,9.31
2019-03-28T00:15:41.038Z,9.31
2019-03-28T00:18:08.633Z,9.31
2019-03-28T00:20:36.560Z,9.30
2019-03-28T00:23:41.151Z,9.30
2019-03-28T00:26:09.120Z,9.32
2019-03-28T00:28:37.034Z,9.31
2019-03-28T00:31:04.735Z,9.32
2019-03-28T00:33:32.487Z,9.32
2019-03-28T00:36:00.078Z,9.32
2019-03-28T00:38:27.576Z,9.32
2019-03-28T00:40:55.235Z,9.32
2019-03-28T00:43:23.216Z,9.33
2019-03-28T00:45:50.744Z,9.34
2019-03-28T00:48:21.009Z,9.34
2019-03-28T00:50:48.497Z,9.37
2019-03-28T00:53:19.146Z,9.37
2019-03-28T00:55:49.140Z,9.37
2019-03-28T00:58:16.905Z,9.36
2019-03-28T01:00:44.516Z,9.36
2019-03-28T01:03:13.675Z,9.36
2019-03-28T01:05:42.233Z,9.35
2019-03-28T01:08:13.430Z,9.34
2019-03-28T01:10:41.038Z,9.33
2019-03-28T01:13:08.877Z,9.33
2019-03-28T01:15:36.406Z,9.33
2019-03-28T01:18:03.995Z,9.33
2019-03-28T01:20:31.529Z,9.32
2019-03-28T01:22:59.139Z,9.32
2019-03-28T01:25:27.469Z,9.29
2019-03-28T01:27:55.071Z,9.29
2019-03-28T01:30:22.815Z,9.27
2019-03-28T01:32:53.203Z,9.25
2019-03-28T01:35:21.587Z,9.22
2019-03-28T01:37:49.114Z,9.18
2019-03-28T01:40:22.092Z,9.14
2019-03-28T01:42:47.212Z,9.14
2019-03-28T01:45:14.740Z,9.10
2019-03-28T01:47:43.172Z,9.08
2019-03-28T01:50:11.050Z,9.04
2019-03-28T01:52:45.576Z,8.97
2019-03-28T01:55:16.678Z,8.94
2019-03-28T01:57:44.484Z,8.88
2019-03-28T02:00:12.414Z,8.88
2019-03-28T02:02:40.112Z,8.82
2019-03-28T02:05:07.605Z,8.80
2019-03-28T02:07:35.467Z,8.77
2019-03-28T02:10:02.925Z,8.77
2019-03-28T02:12:31.137Z,8.78
2019-03-28T02:14:58.947Z,8.78
2019-03-28T02:17:26.867Z,8.80
2019-03-28T02:19:54.726Z,8.81
2019-03-28T02:22:22.582Z,8.81
2019-03-28T02:24:50.099Z,8.84
2019-03-28T02:27:23.815Z,8.86
2019-03-28T02:29:50.146Z,8.86
2019-03-28T02:32:17.757Z,8.89
2019-03-28T02:34:48.840Z,8.92
2019-03-28T02:37:14.530Z,8.92
2019-03-28T02:39:45.175Z,8.93
2019-03-28T02:42:13.093Z,8.94
2019-03-28T02:44:40.679Z,8.92
2019-03-28T02:47:08.227Z,8.92
2019-03-28T02:49:36.127Z,8.92
2019-03-28T02:52:06.641Z,8.92
2019-03-28T02:54:34.142Z,8.94
2019-03-28T02:57:01.975Z,8.94
2019-03-28T02:59:29.571Z,8.95
2019-03-28T03:01:57.020Z,8.98
2019-03-28T03:04:24.538Z,9.03
2019-03-28T03:06:52.342Z,9.04
2019-03-28T03:09:19.950Z,9.04
2019-03-28T03:11:47.480Z,9.03
2019-03-28T03:14:15.102Z,9.02
2019-03-28T03:16:42.922Z,9.02
2019-03-28T03:19:10.502Z,9.01
2019-03-28T03:21:38.125Z,9.01
2019-03-28T03:24:05.697Z,9.00
2019-03-28T03:26:34.917Z,8.97
2019-03-28T03:29:02.528Z,8.96
2019-03-28T03:31:30.058Z,8.94
2019-03-28T03:33:57.637Z,8.93
2019-03-28T03:36:25.512Z,8.90
2019-03-28T03:38:53.039Z,8.91
2019-03-28T03:41:20.489Z,8.89
2019-03-28T03:43:49.674Z,8.90
2019-03-28T03:46:17.300Z,8.88
2019-03-28T03:48:45.271Z,8.87
2019-03-28T03:51:12.826Z,8.87
2019-03-28T03:53:40.439Z,8.84
2019-03-28T03:56:08.011Z,8.82
2019-03-28T03:58:35.551Z,8.81
2019-03-28T04:01:03.073Z,8.79
2019-03-28T04:03:30.691Z,8.75
2019-03-28T04:05:58.444Z,8.75
2019-03-28T04:08:27.008Z,8.75
2019-03-28T04:10:54.731Z,8.71
2019-03-28T04:13:22.261Z,8.71
2019-03-28T04:15:50.063Z,8.69
2019-03-28T04:18:21.710Z,8.70
2019-03-28T04:20:46.903Z,8.70
2019-03-28T04:23:14.715Z,8.70
2019-03-28T04:25:43.051Z,8.70
2019-03-28T04:28:10.574Z,8.71
2019-03-28T04:30:38.241Z,8.71
2019-03-28T04:33:06.041Z,8.71
2019-03-28T04:35:33.637Z,8.72
2019-03-28T04:38:01.196Z,8.72
2019-03-28T04:40:28.790Z,8.72
2019-03-28T04:42:56.639Z,8.74
2019-03-28T04:45:24.245Z,8.76
2019-03-28T04:47:51.858Z,8.77
2019-03-28T04:50:19.671Z,8.77
2019-03-28T04:52:47.181Z,8.77
2019-03-28T04:55:15.044Z,8.77
2019-03-28T04:57:42.599Z,8.77
2019-03-28T05:00:10.482Z,8.76
2019-03-28T05:02:38.139Z,8.75
2019-03-28T05:05:06.405Z,8.73
2019-03-28T05:07:34.164Z,8.73
2019-03-28T05:10:01.981Z,8.72
2019-03-28T05:12:29.538Z,8.72
2019-03-28T05:14:57.084Z,8.73
2019-03-28T05:17:24.705Z,8.73
2019-03-28T05:19:52.588Z,8.71
2019-03-28T05:22:20.119Z,8.68
2019-03-28T05:24:47.706Z,8.64
2019-03-28T05:27:16.613Z,8.63
2019-03-28T05:29:44.935Z,8.63
2019-03-28T05:32:12.400Z,8.63
2019-03-28T05:34:40.057Z,8.64
2019-03-28T05:37:11.094Z,8.63
2019-03-28T05:39:38.588Z,8.64
2019-03-28T05:42:06.100Z,8.64
2019-03-28T05:44:33.898Z,8.65
2019-03-28T05:47:01.803Z,8.67
2019-03-28T05:49:29.414Z,8.69
2019-03-28T05:51:57.696Z,8.74
2019-03-28T05:54:25.263Z,8.74
2019-03-28T05:56:52.867Z,8.78
2019-03-28T05:59:20.709Z,8.79
2019-03-28T06:01:48.285Z,8.86
2019-03-28T06:04:15.770Z,8.86
2019-03-28T06:06:44.251Z,8.89
2019-03-28T06:09:11.829Z,8.96
2019-03-28T06:11:42.519Z,8.96
2019-03-28T06:14:10.644Z,9.01
2019-03-28T06:16:38.245Z,9.08
2019-03-28T06:19:05.769Z,9.14
2019-03-28T06:21:36.173Z,9.19
2019-03-28T06:24:03.804Z,9.19
2019-03-28T06:26:31.354Z,9.25
2019-03-28T06:28:59.159Z,9.31
2019-03-28T06:31:26.740Z,9.48
2019-03-28T06:33:54.281Z,9.59
2019-03-28T06:36:26.724Z,9.59
2019-03-28T06:38:54.382Z,9.69
2019-03-28T06:41:23.250Z,9.79
2019-03-28T06:43:52.273Z,10.01
2019-03-28T06:46:19.857Z,10.01
2019-03-28T06:48:47.431Z,10.12
2019-03-28T06:51:15.282Z,10.22
2019-03-28T06:53:45.594Z,10.32
2019-03-28T06:56:13.196Z,10.40
2019-03-28T06:58:40.994Z,10.50
2019-03-28T07:01:08.635Z,10.58
2019-03-28T07:03:36.612Z,10.63
2019-03-28T07:06:08.872Z,10.73
2019-03-28T07:08:38.997Z,10.73
2019-03-28T07:11:07.407Z,10.76
2019-03-28T07:13:35.889Z,10.88
2019-03-28T07:16:09.913Z,10.88
2019-03-28T07:18:37.586Z,10.94
2019-03-28T07:21:05.382Z,11.10
2019-03-28T07:23:33.008Z,11.10
2019-03-28T07:26:02.246Z,11.22
2019-03-28T07:28:30.129Z,11.32
2019-03-28T07:30:57.741Z,11.40
2019-03-28T07:33:25.307Z,11.50
2019-03-28T07:35:54.498Z,11.59
2019-03-28T07:38:22.050Z,11.65
2019-03-28T07:40:49.631Z,11.70
2019-03-28T07:43:19.136Z,11.70
2019-03-28T07:45:46.767Z,11.70
2019-03-28T07:48:14.341Z,11.78
2019-03-28T07:50:42.616Z,11.78
2019-03-28T07:53:10.293Z,11.83
2019-03-28T07:55:37.880Z,11.91
2019-03-28T07:58:07.527Z,11.95
2019-03-28T08:00:34.817Z,11.94
2019-03-28T08:03:04.286Z,11.89
2019-03-28T08:05:32.105Z,11.83
2019-03-28T08:07:59.680Z,11.75
2019-03-28T08:10:27.290Z,11.70
2019-03-28T08:12:55.057Z,11.61
2019-03-28T08:15:22.661Z,11.61
2019-03-28T08:17:50.350Z,11.60
2019-03-28T08:20:18.186Z,11.57
2019-03-28T08:22:45.757Z,11.57
2019-03-28T08:25:14.013Z,11.59
2019-03-28T08:27:41.945Z,11.59
2019-03-28T08:30:18.610Z,11.62
2019-03-28T08:32:55.168Z,11.62
2019-03-28T08:35:10.738Z,11.64
2019-03-28T08:37:38.291Z,11.64
2019-03-28T08:40:06.159Z,11.74
2019-03-28T08:42:34.070Z,11.74
2019-03-28T08:45:01.610Z,11.80
2019-03-28T08:47:29.169Z,11.88
2019-03-28T08:49:58.698Z,11.94
2019-03-28T08:52:28.461Z,12.00
2019-03-28T08:54:56.093Z,12.05
2019-03-28T08:57:30.121Z,12.14
2019-03-28T08:59:57.856Z,12.27
2019-03-28T09:02:25.679Z,12.27
2019-03-28T09:04:53.361Z,12.44
2019-03-28T09:07:20.917Z,12.59
2019-03-28T09:09:48.749Z,12.72
2019-03-28T09:12:17.473Z,12.84
2019-03-28T09:14:45.088Z,12.90
2019-03-28T09:17:16.704Z,13.00
2019-03-28T09:19:50.055Z,13.11
2019-03-28T09:22:19.576Z,13.21
2019-03-28T09:24:49.978Z,13.34
2019-03-28T09:27:19.586Z,13.46
2019-03-28T09:29:47.482Z,13.49
2019-03-28T09:32:15.019Z,13.45
2019-03-28T09:34:42.604Z,13.51
2019-03-28T09:37:10.500Z,13.51
2019-03-28T09:39:39.964Z,13.61
2019-03-28T09:42:07.517Z,13.80
2019-03-28T09:44:35.331Z,13.96
2019-03-28T09:47:02.891Z,14.07
2019-03-28T09:49:30.488Z,14.17
2019-03-28T09:52:02.159Z,14.17
2019-03-28T09:54:29.739Z,14.24
2019-03-28T09:56:57.372Z,14.35
2019-03-28T09:59:25.217Z,14.43
2019-03-28T10:01:57.052Z,14.62
2019-03-28T10:04:25.176Z,14.62
2019-03-28T10:06:54.030Z,14.72
2019-03-28T10:09:23.064Z,14.78
2019-03-28T10:11:50.716Z,14.87
2019-03-28T10:14:18.546Z,14.87
2019-03-28T10:16:53.151Z,14.97
2019-03-28T10:19:20.723Z,15.17
2019-03-28T10:21:51.256Z,15.40
2019-03-28T10:24:18.872Z,15.87
2019-03-28T10:26:46.427Z,16.05
2019-03-28T10:29:15.492Z,16.05
2019-03-28T10:31:43.141Z,16.23
2019-03-28T10:34:10.734Z,16.52
2019-03-28T10:36:38.608Z,16.83
2019-03-28T10:39:07.342Z,17.03
2019-03-28T10:41:34.939Z,17.18
2019-03-28T10:44:02.905Z,17.30
2019-03-28T10:46:30.384Z,17.39
2019-03-28T10:49:02.643Z,17.45
2019-03-28T10:51:30.546Z,17.41
2019-03-28T10:53:59.956Z,17.29
2019-03-28T10:56:27.504Z,17.17
2019-03-28T10:58:55.326Z,17.09
2019-03-28T11:01:36.408Z,16.86
2019-03-28T11:03:52.203Z,16.86
2019-03-28T11:06:20.119Z,16.46
2019-03-28T11:08:47.669Z,16.46
2019-03-28T11:11:18.206Z,16.27
2019-03-28T11:13:46.074Z,16.13
2019-03-28T11:16:15.192Z,16.02
2019-03-28T11:18:42.925Z,15.99
2019-03-28T11:21:10.748Z,15.99
2019-03-28T11:23:40.268Z,16.05
2019-03-28T11:26:08.187Z,16.14
2019-03-28T11:28:35.813Z,16.20
2019-03-28T11:31:03.352Z,16.22
2019-03-28T11:33:35.474Z,16.20
2019-03-28T11:36:03.070Z,16.13
2019-03-28T11:38:33.312Z,16.06
2019-03-28T11:41:05.449Z,16.00
2019-03-28T11:43:33.002Z,15.88
2019-03-28T11:46:00.627Z,15.74
2019-03-28T11:48:28.483Z,15.60
2019-03-28T11:50:56.214Z,15.49
2019-03-28T11:53:23.773Z,15.41
2019-03-28T11:55:51.646Z,15.29
2019-03-28T11:58:19.196Z,15.20
2019-03-28T12:00:50.778Z,15.11
2019-03-28T12:03:19.499Z,14.98
2019-03-28T12:05:52.942Z,14.80
2019-03-28T12:08:19.419Z,14.80
2019-03-28T12:10:47.324Z,14.62
2019-03-28T12:13:14.871Z,14.49
2019-03-28T12:15:42.434Z,14.42
2019-03-28T12:18:10.340Z,14.40
2019-03-28T12:20:37.966Z,14.40
2019-03-28T12:23:05.538Z,14.40
2019-03-28T12:25:33.522Z,14.41
2019-03-28T12:28:01.165Z,14.39
2019-03-28T12:30:28.683Z,14.37
2019-03-28T12:32:56.610Z,14.37
2019-03-28T12:35:24.141Z,14.37
2019-03-28T12:37:52.833Z,14.34
2019-03-28T12:40:22.957Z,14.38
2019-03-28T12:42:50.572Z,14.38
2019-03-28T12:45:20.040Z,14.42
2019-03-28T12:47:58.159Z,14.46
2019-03-28T12:50:20.016Z,14.51
2019-03-28T12:52:47.640Z,14.54
2019-03-28T12:55:15.527Z,14.54
2019-03-28T12:57:43.132Z,14.55
2019-03-28T13:00:10.751Z,14.58
2019-03-28T13:02:40.579Z,14.57
2019-03-28T13:05:07.908Z,14.57
2019-03-28T13:07:35.548Z,14.54
2019-03-28T13:10:03.399Z,14.53
2019-03-28T13:12:31.023Z,14.55
2019-03-28T13:14:58.607Z,14.55
2019-03-28T13:17:26.505Z,14.54
2019-03-28T13:19:57.007Z,14.52
2019-03-28T13:22:24.548Z,14.51
2019-03-28T13:24:52.376Z,14.51
2019-03-28T13:27:19.957Z,14.53
2019-03-28T13:29:47.667Z,14.54
2019-03-28T13:32:15.506Z,14.56
2019-03-28T13:34:43.144Z,14.56
2019-03-28T13:37:10.742Z,14.55
2019-03-28T13:39:38.676Z,14.54
2019-03-28T13:42:09.999Z,14.54
2019-03-28T13:44:37.572Z,14.53
2019-03-28T13:47:08.168Z,14.52
2019-03-28T13:49:35.803Z,14.51
2019-03-28T13:52:05.033Z,14.53
2019-03-28T13:54:33.643Z,14.53
2019-03-28T13:57:02.399Z,14.50
2019-03-28T13:59:30.013Z,14.50
2019-03-28T14:01:57.941Z,14.47
2019-03-28T14:04:25.549Z,14.46
2019-03-28T14:06:53.166Z,14.47
2019-03-28T14:09:23.294Z,14.46
2019-03-28T14:11:50.207Z,14.47
2019-03-28T14:14:23.968Z,14.50
2019-03-28T14:16:53.301Z,14.50
2019-03-28T14:19:20.890Z,14.51
2019-03-28T14:21:48.429Z,14.49
2019-03-28T14:24:17.757Z,14.46
2019-03-28T14:26:45.334Z,14.46
2019-03-28T14:29:15.189Z,14.46
2019-03-28T14:31:43.370Z,14.49
2019-03-28T14:34:10.907Z,14.49
2019-03-28T14:36:38.567Z,14.48
2019-03-28T14:39:07.532Z,14.47
2019-03-28T14:41:35.022Z,14.48
2019-03-28T14:44:02.758Z,14.49
2019-03-28T14:46:32.869Z,14.47
2019-03-28T14:49:00.684Z,14.44
2019-03-28T14:51:28.339Z,14.43
2019-03-28T14:53:58.006Z,14.40
2019-03-28T14:56:27.899Z,14.35
2019-03-28T14:58:59.539Z,14.29
2019-03-28T15:01:27.403Z,14.23
2019-03-28T15:04:00.690Z,14.18
2019-03-28T15:06:28.415Z,14.15
2019-03-28T15:08:59.045Z,14.11
2019-03-28T15:11:27.066Z,14.03
2019-03-28T15:13:57.015Z,14.03
2019-03-28T15:16:24.830Z,14.00
2019-03-28T15:18:56.048Z,13.98
2019-03-28T15:21:23.207Z,13.95
2019-03-28T15:23:51.111Z,13.93
2019-03-28T15:26:21.152Z,13.86
2019-03-28T15:28:50.421Z,13.86
2019-03-28T15:31:17.884Z,13.83
2019-03-28T15:33:45.545Z,13.78
2019-03-28T15:36:13.378Z,13.72
2019-03-28T15:38:42.137Z,13.67
2019-03-28T15:41:09.747Z,13.59
2019-03-28T15:43:37.593Z,13.53
2019-03-28T15:46:05.549Z,13.47
2019-03-28T15:48:35.579Z,13.45
2019-03-28T15:51:04.489Z,13.45
2019-03-28T15:53:33.253Z,13.38
2019-03-28T15:56:00.766Z,13.38
2019-03-28T15:58:32.290Z,13.32
2019-03-28T16:01:18.084Z,13.26
2019-03-28T16:03:53.357Z,13.19
2019-03-28T16:06:18.540Z,13.17
2019-03-28T16:08:51.085Z,13.17
2019-03-28T16:11:18.661Z,13.14
2019-03-28T16:13:46.238Z,13.14
2019-03-28T16:16:13.878Z,13.11
2019-03-28T16:18:44.826Z,13.06
2019-03-28T16:21:12.362Z,13.06
2019-03-28T16:23:42.939Z,13.03
2019-03-28T16:26:12.800Z,13.02
2019-03-28T16:28:40.730Z,12.99
2019-03-28T16:31:10.136Z,12.95
2019-03-28T16:33:38.042Z,12.95
2019-03-28T16:36:09.279Z,12.93
2019-03-28T16:38:36.868Z,12.92
2019-03-28T16:41:04.725Z,12.89
2019-03-28T16:43:32.301Z,12.84
2019-03-28T16:45:59.918Z,12.84
2019-03-28T16:48:30.263Z,12.82
2019-03-28T16:50:57.884Z,12.81
2019-03-28T16:53:28.206Z,12.76
2019-03-28T16:55:56.237Z,12.76
2019-03-28T16:58:23.778Z,12.72
2019-03-28T17:00:51.722Z,12.70
2019-03-28T17:03:22.530Z,12.68
2019-03-28T17:05:50.122Z,12.68
2019-03-28T17:08:17.978Z,12.65
2019-03-28T17:10:47.097Z,12.63
2019-03-28T17:13:14.624Z,12.61
2019-03-28T17:15:43.346Z,12.59
2019-03-28T17:18:11.183Z,12.51
2019-03-28T17:20:43.827Z,12.50
2019-03-28T17:23:11.449Z,12.50
2019-03-28T17:25:40.229Z,12.48
2019-03-28T17:28:08.167Z,12.46
2019-03-28T17:30:41.010Z,12.43
2019-03-28T17:33:06.247Z,12.40
2019-03-28T17:35:33.865Z,12.37
2019-03-28T17:38:01.828Z,12.32
2019-03-28T17:40:29.457Z,12.32
2019-03-28T17:43:00.146Z,12.31
2019-03-28T17:45:28.063Z,12.28
2019-03-28T17:47:55.703Z,12.26
2019-03-28T17:50:23.330Z,12.23
2019-03-28T17:52:51.190Z,12.16
2019-03-28T17:55:19.795Z,12.16
2019-03-28T17:57:47.552Z,12.11
2019-03-28T18:00:15.397Z,12.11
2019-03-28T18:02:43.420Z,12.07
2019-03-28T18:05:15.263Z,12.03
2019-03-28T18:07:40.546Z,12.03
2019-03-28T18:10:11.338Z,12.01
2019-03-28T18:12:39.655Z,11.98
2019-03-28T18:15:07.533Z,11.94
2019-03-28T18:17:35.045Z,11.94
2019-03-28T18:20:02.641Z,11.92
2019-03-28T18:22:30.621Z,11.90
2019-03-28T18:25:07.924Z,11.89
2019-03-28T18:27:35.634Z,11.87
2019-03-28T18:30:05.527Z,11.85
2019-03-28T18:32:34.118Z,11.83
2019-03-28T18:35:05.792Z,11.80
2019-03-28T18:37:31.199Z,11.80
2019-03-28T18:39:58.794Z,11.79
2019-03-28T18:42:26.346Z,11.79
2019-03-28T18:44:57.777Z,11.75
2019-03-28T18:47:27.243Z,11.75
2019-03-28T18:49:55.217Z,11.75
2019-03-28T18:52:23.054Z,11.74
2019-03-28T18:54:50.698Z,11.74
2019-03-28T18:57:19.742Z,11.69
2019-03-28T18:59:50.656Z,11.69
2019-03-28T19:02:18.204Z,11.66
2019-03-28T19:04:45.807Z,11.60
2019-03-28T19:07:13.670Z,11.60
2019-03-28T19:09:41.330Z,11.59
2019-03-28T19:12:11.148Z,11.57
2019-03-28T19:14:41.864Z,11.55
2019-03-28T19:17:09.551Z,11.54
2019-03-28T19:19:39.500Z,11.47
2019-03-28T19:22:09.309Z,11.44
2019-03-28T19:24:36.919Z,11.44
2019-03-28T19:27:04.503Z,11.42
2019-03-28T19:29:32.372Z,11.42
2019-03-28T19:32:00.109Z,11.44
2019-03-28T19:34:29.993Z,11.44
2019-03-28T19:36:57.896Z,11.46
2019-03-28T19:39:26.401Z,11.46
2019-03-28T19:42:04.492Z,11.46
2019-03-28T19:44:31.187Z,11.46
2019-03-28T19:46:58.832Z,11.47
2019-03-28T19:49:26.479Z,11.44
2019-03-28T19:51:56.239Z,11.43
2019-03-28T19:54:23.871Z,11.40
2019-03-28T19:56:51.519Z,11.38
2019-03-28T19:59:19.396Z,11.36
2019-03-28T20:01:49.830Z,11.36
2019-03-28T20:04:19.223Z,11.35
2019-03-28T20:06:50.254Z,11.30
2019-03-28T20:09:18.488Z,11.30
2019-03-28T20:11:46.138Z,11.26
2019-03-28T20:14:14.032Z,11.14
2019-03-28T20:16:42.856Z,11.14
2019-03-28T20:19:12.967Z,11.07
2019-03-28T20:21:43.576Z,11.02
2019-03-28T20:24:11.197Z,10.93
2019-03-28T20:26:41.070Z,10.93
2019-03-28T20:29:09.286Z,10.93
2019-03-28T20:31:38.070Z,10.90
2019-03-28T20:34:05.648Z,10.90
2019-03-28T20:36:38.563Z,10.88
2019-03-28T20:39:04.285Z,10.85
2019-03-28T20:41:32.429Z,10.85
2019-03-28T20:44:11.709Z,10.82
2019-03-28T20:46:41.034Z,10.78
2019-03-28T20:49:10.998Z,10.61
2019-03-28T20:51:38.953Z,10.61
2019-03-28T20:54:08.631Z,10.46
2019-03-28T20:56:36.503Z,10.33
2019-03-28T20:59:05.465Z,10.18
2019-03-28T21:01:33.393Z,10.04
2019-03-28T21:04:01.017Z,9.90
2019-03-28T21:06:28.820Z,9.77
2019-03-28T21:08:56.459Z,9.65
2019-03-28T21:11:24.087Z,9.42
2019-03-28T21:13:51.827Z,9.42
2019-03-28T21:16:19.456Z,9.32
2019-03-28T21:18:47.417Z,9.23
2019-03-28T21:21:15.769Z,9.09
2019-03-28T21:23:46.474Z,9.03
2019-03-28T21:26:15.958Z,9.03
2019-03-28T21:28:47.530Z,8.97
2019-03-28T21:31:16.171Z,8.93
2019-03-28T21:33:44.258Z,8.84
2019-03-28T21:36:12.530Z,8.84
2019-03-28T21:38:40.411Z,8.78
2019-03-28T21:41:08.021Z,8.64
2019-03-28T21:43:36.879Z,8.59
2019-03-28T21:46:04.440Z,8.59
2019-03-28T21:48:33.350Z,8.50
2019-03-28T21:51:01.222Z,8.44
2019-03-28T21:53:28.689Z,8.44
2019-03-28T21:55:58.169Z,8.40
2019-03-28T21:58:28.727Z,8.35
2019-03-28T22:00:56.363Z,8.25
2019-03-28T22:03:25.898Z,8.25
2019-03-28T22:05:55.195Z,8.17
2019-03-28T22:08:22.753Z,8.17
2019-03-28T22:10:50.363Z,8.12
2019-03-28T22:13:19.367Z,8.07
2019-03-28T22:15:47.588Z,8.07
2019-03-28T22:18:16.494Z,7.96
2019-03-28T22:20:44.395Z,7.96
2019-03-28T22:23:13.583Z,7.87
2019-03-28T22:25:41.347Z,7.87
2019-03-28T22:28:09.250Z,7.73
2019-03-28T22:30:37.141Z,7.73
2019-03-28T22:33:04.771Z,7.65
2019-03-28T22:35:33.719Z,7.57
2019-03-28T22:38:02.391Z,7.51
2019-03-28T22:40:30.315Z,7.45
2019-03-28T22:42:58.616Z,7.39
2019-03-28T22:45:26.511Z,7.27
2019-03-28T22:47:54.471Z,7.27
2019-03-28T22:50:22.060Z,7.22
2019-03-28T22:52:49.580Z,7.17
2019-03-28T22:55:17.416Z,7.10
2019-03-28T22:57:44.995Z,7.04
2019-03-28T23:00:12.661Z,6.90
2019-03-28T23:02:40.508Z,6.90
2019-03-28T23:05:08.049Z,6.76
2019-03-28T23:07:35.573Z,6.76
2019-03-28T23:10:03.484Z,6.74
2019-03-28T23:12:31.043Z,6.71
2019-03-28T23:15:01.013Z,6.66
2019-03-28T23:17:31.950Z,6.66
2019-03-28T23:19:59.554Z,6.57
2019-03-28T23:22:27.179Z,6.53
2019-03-28T23:24:54.796Z,6.53
2019-03-28T23:27:24.838Z,6.52
2019-03-28T23:29:52.452Z,6.46
2019-03-28T23:32:24.628Z,6.42
2019-03-28T23:34:52.170Z,6.34
2019-03-28T23:37:24.910Z,6.29
2019-03-28T23:39:52.710Z,6.29
2019-03-28T23:42:20.248Z,6.25
2019-03-28T23:44:47.888Z,6.24
2019-03-28T23:47:17.410Z,6.20
2019-03-28T23:49:45.306Z,6.20
2019-03-28T23:52:12.873Z,6.12
2019-03-28T23:54:40.505Z,6.10
2019-03-28T23:57:11.234Z,6.10
2019-03-28T23:59:39.254Z,6.07
